»·PEaware :: COA1025 MMMX-KIAH

COA1025 :: MMMX-KIAH

FLIGHT INFORMATION

Flight Status: Arrived
Operator:
Continental Air Lines
More flights by this operator :: More flights under this callsign
Pilot: Robby H. (353)
Aircraft: BOEING 767-200
(B762)
More flights by this aircraft type
Origin: MMMX Lic Benito Juarez Intl
Mexico
Destination: KIAH G Bush Intercontinental/Houst
United States
More flights between these airports :: More routes between these airports
Route: MAM BRO CRP HAMMU1
File this flight plan on PilotEdge
Remarks: / V /
Altitude:
(Current/Filed)
31,000ft
Speed:
(Current/Filed)
532kts
Departed: 24-Dec-11 07:46 PM
Arrived: 24-Dec-11 09:24 PM
Distance/Time
Traveled:
664nm/1:38
Distance/Time
To Go:
Arrived

Flight Plot

Page will automatically refresh every two minutes.


Map Options




Map Legend


Flown Route
Filed Route
Departure Airport
Arrival Airport
Navaid (VOR, NDB)
Fix

Horizontal Profiles

Position Reports

Time Latitude Longitude Heading Altitude Ground
Speed
24-Dec-11 19:40 19.433472 -99.084173 326 7329ft 0kts
24-Dec-11 19:41 19.433472 -99.084173 326 7329ft 0kts
24-Dec-11 19:42 19.432992 -99.083840 326 7329ft 2kts
24-Dec-11 19:43 19.431017 -99.086846 236 7329ft 32kts
24-Dec-11 19:44 19.427246 -99.091384 59 7329ft 37kts
24-Dec-11 19:45 19.447992 -99.054469 59 7797ft 205kts
24-Dec-11 19:46 19.505094 -99.019600 10 9777ft 283kts
24-Dec-11 19:47 19.589955 -99.000330 12 11073ft 363kts
24-Dec-11 19:48 19.698292 -98.975580 12 12103ft 412kts
24-Dec-11 19:49 19.812571 -98.949438 12 13116ft 420kts
24-Dec-11 19:50 19.927145 -98.923189 12 14112ft 427kts
24-Dec-11 19:51 20.045891 -98.895907 12 15125ft 435kts
24-Dec-11 19:52 20.165821 -98.868382 12 16131ft 442kts
24-Dec-11 19:53 20.287965 -98.840270 12 17141ft 450kts
24-Dec-11 19:55 20.536524 -98.782986 12 19139ft 466kts
24-Dec-11 19:56 20.643310 -98.758251 12 19976ft 473kts
24-Dec-11 20:01 21.318066 -98.601395 11 25002ft 516kts
24-Dec-11 20:03 21.602974 -98.534777 10 27009ft 531kts
24-Dec-11 20:04 21.747605 -98.500825 10 27999ft 536kts
24-Dec-11 20:05 21.892539 -98.466737 10 28984ft 536kts
24-Dec-11 20:06 22.038651 -98.432278 10 29976ft 533kts
24-Dec-11 20:07 22.184185 -98.397891 9 30931ft 531kts
24-Dec-11 20:08 22.329147 -98.363572 9 30963ft 529kts
24-Dec-11 20:09 22.472777 -98.329552 9 30969ft 529kts
24-Dec-11 20:10 22.617438 -98.295162 8 31017ft 536kts
24-Dec-11 20:11 22.764006 -98.260263 8 31018ft 536kts
24-Dec-11 20:12 22.910764 -98.225232 8 31021ft 536kts
24-Dec-11 20:13 23.056292 -98.190341 8 31020ft 536kts
24-Dec-11 20:14 23.202378 -98.155356 8 31023ft 536kts
24-Dec-11 20:15 23.347784 -98.120377 8 31027ft 536kts
24-Dec-11 20:16 23.493874 -98.085129 8 31031ft 536kts
24-Dec-11 20:17 23.640304 -98.049715 8 31036ft 536kts
24-Dec-11 20:18 23.786086 -98.014390 8 31040ft 537kts
24-Dec-11 20:19 23.932795 -97.978829 8 31042ft 537kts
24-Dec-11 20:20 24.079836 -97.942994 8 31048ft 539kts
24-Dec-11 20:21 24.226534 -97.907249 8 31053ft 539kts
24-Dec-11 20:22 24.372514 -97.871550 8 31060ft 540kts
24-Dec-11 20:23 24.521387 -97.834963 8 31073ft 542kts
24-Dec-11 20:24 24.667248 -97.799032 8 31087ft 543kts
24-Dec-11 20:25 24.816393 -97.762275 8 31114ft 546kts
24-Dec-11 20:26 24.965126 -97.725459 8 31107ft 546kts
24-Dec-11 20:27 25.114267 -97.688508 8 31109ft 546kts
24-Dec-11 20:28 25.261848 -97.651785 8 31112ft 546kts
24-Dec-11 20:29 25.409198 -97.614930 8 31104ft 546kts
24-Dec-11 20:30 25.558651 -97.577411 8 31104ft 546kts
24-Dec-11 20:31 25.707331 -97.539960 8 31107ft 546kts
24-Dec-11 20:32 25.841830 -97.465374 39 31091ft 558kts
24-Dec-11 20:33 25.978663 -97.385921 5 31064ft 550kts
24-Dec-11 20:34 26.129363 -97.379967 352 31063ft 537kts
24-Dec-11 20:35 26.278524 -97.387397 352 31073ft 535kts
24-Dec-11 20:36 26.428255 -97.392896 352 31073ft 536kts
24-Dec-11 20:37 26.577535 -97.397976 352 31073ft 536kts
24-Dec-11 20:38 26.727171 -97.403236 352 31072ft 536kts
24-Dec-11 20:39 26.875203 -97.408410 352 31069ft 537kts
24-Dec-11 20:40 27.025590 -97.413713 351 31076ft 540kts
24-Dec-11 20:41 27.176047 -97.419016 351 31080ft 540kts
24-Dec-11 20:42 27.326067 -97.433882 346 31078ft 536kts
24-Dec-11 20:43 27.474587 -97.452024 346 31080ft 535kts
24-Dec-11 20:44 27.597505 -97.467175 346 31079ft 535kts
24-Dec-11 20:45 27.746869 -97.478228 356 31072ft 542kts
24-Dec-11 20:46 27.898428 -97.443531 13 31077ft 556kts
24-Dec-11 20:47 28.043075 -97.377046 20 31078ft 563kts
24-Dec-11 20:48 28.187573 -97.303070 20 31099ft 569kts
24-Dec-11 20:49 28.331606 -97.230588 19 31094ft 568kts
24-Dec-11 20:50 28.476518 -97.157666 20 31089ft 568kts
24-Dec-11 20:51 28.620937 -97.084597 20 31089ft 568kts
24-Dec-11 20:52 28.756165 -97.016040 20 31086ft 569kts
24-Dec-11 20:53 28.896439 -96.944758 20 29197ft 570kts
24-Dec-11 20:54 29.040795 -96.871130 20 26530ft 567kts
24-Dec-11 20:55 29.178343 -96.790642 33 23798ft 546kts
24-Dec-11 20:56 29.285971 -96.666881 52 21087ft 537kts
24-Dec-11 20:57 29.364683 -96.526475 61 18390ft 519kts
24-Dec-11 20:58 29.431569 -96.392839 61 15810ft 501kts
24-Dec-11 20:59 29.498846 -96.259599 61 13140ft 484kts
24-Dec-11 21:00 29.565186 -96.129066 62 10393ft 438kts
24-Dec-11 21:01 29.623326 -96.013936 62 7662ft 399kts
24-Dec-11 21:02 29.676979 -95.907243 63 4975ft 376kts
24-Dec-11 21:03 29.728498 -95.804387 63 3114ft 374kts
24-Dec-11 21:04 29.778530 -95.704513 63 3072ft 358kts
24-Dec-11 21:05 29.832118 -95.597233 65 3021ft 415kts
24-Dec-11 21:06 29.872017 -95.470408 81 3039ft 416kts
24-Dec-11 21:07 29.889800 -95.342095 90 2996ft 407kts
24-Dec-11 21:08 29.896004 -95.211247 94 3016ft 402kts
24-Dec-11 21:09 29.897010 -95.085521 92 3062ft 361kts
24-Dec-11 21:10 29.897289 -94.972514 93 3061ft 349kts
24-Dec-11 21:11 29.897330 -94.862855 97 3053ft 380kts
24-Dec-11 21:12 29.951692 -94.755131 27 2737ft 417kts
24-Dec-11 21:13 30.057860 -94.760022 318 2098ft 391kts
24-Dec-11 21:14 30.084131 -94.862036 244 2104ft 319kts
24-Dec-11 21:15 30.047019 -94.940456 239 1665ft 242kts
24-Dec-11 21:16 30.023923 -95.005619 246 1471ft 196kts
24-Dec-11 21:17 30.010832 -95.059660 248 1143ft 149kts
24-Dec-11 21:18 30.002272 -95.105951 249 1165ft 147kts
24-Dec-11 21:19 29.995620 -95.152277 251 1241ft 132kts
24-Dec-11 21:20 29.988519 -95.205348 251 1202ft 183kts
24-Dec-11 21:21 29.977528 -95.256163 253 602ft 152kts
24-Dec-11 21:22 29.977438 -95.315260 270 170ft 168kts
24-Dec-11 21:23 29.978432 -95.347312 355 109ft 25kts
24-Dec-11 21:24 29.978497 -95.347536 22 109ft 0kts
24-Dec-11 21:25 29.978498 -95.347536 22 110ft 0kts

Navigation Log

Ident Type
Flight plan parsing failed, navigation log unavailable